x

Devils Island, Wi (disw3) Weather Station

11:00pm - Thu 17th Aug 2017 All times are CDT. -5 hours from GMT.

  • Wind
    18mph, 21mph gusts
  • Air Temp 64°f
  • Sea Pressure 1006.2mb
  • Devils Island, Wi
  • Devils Island, Wi

More Historic Weather Station data

Upgrade to MSW Pro to gain access to the past 30 days of data for over 8000 Wavebouys and Weather Stations around the globe.

Join

Comparision Forecast

View Surf forecast
   
Thu 08/17 11:00pm 18 21 mph 1006.2mb 64f
10:00pm 18 21 mph 1005.9mb 64f
9:00pm 18 20 mph 1005.9mb 63f
8:00pm 18 20 mph 1005.5mb 63f
7:00pm 16 17 mph 1005.1mb 63f
6:00pm 8 9 mph 1004.6mb 62f
5:00pm 8 9 mph 1003.9mb 61f
4:00pm 11 13 mph 1003.2mb 60f
3:00pm 23 25 mph 1002.6mb 60f
2:00pm 26 30 mph 1002mb 60f
1:00pm 26 30 mph 1001.5mb 60f
12:00pm 26 29 mph 1001.8mb 60f
11:00am 22 25 mph 1002.3mb 60f
10:00am 25 29 mph 1002.4mb 60f
9:00am 26 32 mph 1002.5mb 60f
8:00am 25 28 mph 1003.4mb 61f
7:00am 33 39 mph 1003.2mb 61f
6:00am 31 34 mph 1003.5mb 61f
5:00am 28 32 mph 1004.9mb 61f
4:00am 30 34 mph 1004.9mb 61f
3:00am 24 28 mph 1006.3mb 62f
2:00am 18 21 mph 1007.9mb 62f
1:00am 17 21 mph 1008.4mb 62f
12:00am 21 24 mph 1009mb 63f
Wed 08/16 11:00pm 23 26 mph 1009.9mb 63f
10:00pm 23 25 mph 1010.7mb 64f
9:00pm 24 26 mph 1010.7mb 64f
8:00pm 22 25 mph 1011.4mb 64f
7:00pm 21 23 mph 1011.9mb 63f
6:00pm 21 23 mph 1012.5mb 62f
5:00pm 17 20 mph 1013.3mb 62f
4:00pm 15 16 mph 1014.1mb 62f
3:00pm 13 16 mph 1014.6mb 62f
2:00pm 16 18 mph 1015mb 62f
1:00pm 14 15 mph 1015.5mb 62f
12:00pm 13 13 mph 1015.9mb 62f
11:00am 9 10 mph 1016.4mb 62f
10:00am 9 9 mph 1016.4mb 62f
9:00am 16 17 mph 1016.1mb 61f
8:00am 11 13 mph 1017mb 61f
7:00am 10 11 mph 1017.3mb 62f
6:00am 8 10 mph 1017.1mb 62f
5:00am 11 13 mph 1016.7mb 62f
4:00am 11 13 mph 1016.9mb 62f
3:00am 7 8 mph 1017.2mb 61f
2:00am 6 8 mph 1017mb 62f
1:00am 10 11 mph 1017mb 62f
12:00am 11 14 mph 1016.5mb 62f
Tue 08/15 11:00pm 11 13 mph 1016.5mb 62f
10:00pm 16 18 mph 1015.8mb 61f
9:00pm 14 15 mph 1016.5mb 61f
8:00pm 10 13 mph 1016.7mb 62f
7:00pm 14 16 mph 1016.5mb 62f
6:00pm 13 14 mph 1016.6mb 62f
5:00pm 11 13 mph 1016.4mb 62f
4:00pm 9 10 mph 1016.6mb 62f
3:00pm 11 13 mph 1016.4mb 62f
2:00pm 10 11 mph 1016.8mb 62f
1:00pm 13 15 mph 1016.3mb 62f
12:00pm 13 14 mph 1016.6mb 62f
11:00am 11 13 mph 1016.8mb 62f
10:00am 13 14 mph 1016.5mb 62f
9:00am 13 15 mph 1015.6mb 62f
8:00am 14 15 mph 1014.6mb 63f
7:00am 9 10 mph 1014.5mb 63f
6:00am 6 7 mph 1014.5mb 62f
5:00am 9 11 mph 1014.1mb 62f
4:00am 10 11 mph 1013.6mb 62f
3:00am 11 13 mph 1013.2mb 62f
2:00am 8 8 mph 1012.4mb 62f
1:00am 6 6 mph 1012.3mb 62f
12:00am 7 7 mph 1012.2mb 62f
Mon 08/14 11:00pm 7 8 mph 1011.9mb 63f
10:00pm 6 6 mph 1011.7mb 64f
9:00pm 5 5 mph 1011.6mb 65f
8:00pm  -  0 mph 1011.4mb 64f
6:00pm  -  2 mph 1010.8mb 68f
5:00pm 2 2 mph 1011.2mb 65f
4:00pm 2 3 mph 1011.7mb 64f
3:00pm 2 2 mph 1011.9mb 64f
2:00pm 5 5 mph 1012.2mb 63f
1:00pm 6 7 mph 1012.2mb 64f
12:00pm 3 6 mph 1012.1mb 63f
11:00am 6 7 mph 1011.9mb 63f
10:00am 8 9 mph 1011.9mb 62f
9:00am 2 2 mph 1011.9mb 63f
8:00am 2 3 mph 1012.1mb 62f
7:00am 5 5 mph 1012.2mb 63f
6:00am 5 6 mph 1012.3mb 63f